sensor_id;sensor_type;location;lat;lon;timestamp;P1;durP1;ratioP1;P2;durP2;ratioP2
11197;SDS011;5655;48.744;9.162;2023-07-24T00:01:38;10.25;;;6.45;;
11197;SDS011;5655;48.744;9.162;2023-07-24T00:04:03;9.57;;;5.88;;
11197;SDS011;5655;48.744;9.162;2023-07-24T00:06:28;8.43;;;5.97;;
11197;SDS011;5655;48.744;9.162;2023-07-24T00:08:54;10.30;;;6.65;;
11197;SDS011;5655;48.744;9.162;2023-07-24T00:11:19;10.88;;;5.95;;
11197;SDS011;5655;48.744;9.162;2023-07-24T00:13:44;9.85;;;6.50;;
11197;SDS011;5655;48.744;9.162;2023-07-24T00:16:10;9.23;;;6.45;;
11197;SDS011;5655;48.744;9.162;2023-07-24T00:18:35;9.07;;;6.28;;
11197;SDS011;5655;48.744;9.162;2023-07-24T00:21:01;10.77;;;6.68;;
11197;SDS011;5655;48.744;9.162;2023-07-24T00:23:26;10.85;;;7.03;;
11197;SDS011;5655;48.744;9.162;2023-07-24T00:25:52;8.73;;;5.85;;
11197;SDS011;5655;48.744;9.162;2023-07-24T00:28:18;10.30;;;6.65;;
11197;SDS011;5655;48.744;9.162;2023-07-24T00:30:43;9.82;;;6.82;;
11197;SDS011;5655;48.744;9.162;2023-07-24T00:33:08;9.30;;;6.78;;
11197;SDS011;5655;48.744;9.162;2023-07-24T00:35:34;9.95;;;6.75;;
11197;SDS011;5655;48.744;9.162;2023-07-24T00:37:59;10.48;;;6.60;;
11197;SDS011;5655;48.744;9.162;2023-07-24T00:40:24;12.27;;;6.65;;
11197;SDS011;5655;48.744;9.162;2023-07-24T00:42:49;9.73;;;7.00;;
11197;SDS011;5655;48.744;9.162;2023-07-24T00:45:15;9.75;;;6.50;;
11197;SDS011;5655;48.744;9.162;2023-07-24T00:47:41;8.32;;;6.50;;
11197;SDS011;5655;48.744;9.162;2023-07-24T00:50:07;11.02;;;7.05;;
11197;SDS011;5655;48.744;9.162;2023-07-24T00:52:34;11.30;;;6.53;;
11197;SDS011;5655;48.744;9.162;2023-07-24T00:55:00;10.65;;;7.00;;
11197;SDS011;5655;48.744;9.162;2023-07-24T00:57:25;8.95;;;6.43;;
11197;SDS011;5655;48.744;9.162;2023-07-24T00:59:51;10.07;;;6.10;;
11197;SDS011;5655;48.744;9.162;2023-07-24T01:02:16;11.23;;;6.57;;
11197;SDS011;5655;48.744;9.162;2023-07-24T01:04:42;11.63;;;7.03;;
11197;SDS011;5655;48.744;9.162;2023-07-24T01:07:07;10.77;;;6.78;;
11197;SDS011;5655;48.744;9.162;2023-07-24T01:09:33;11.50;;;6.32;;
11197;SDS011;5655;48.744;9.162;2023-07-24T01:12:01;10.65;;;7.15;;
11197;SDS011;5655;48.744;9.162;2023-07-24T01:14:36;8.20;;;6.30;;
11197;SDS011;5655;48.744;9.162;2023-07-24T01:17:04;10.60;;;6.82;;
11197;SDS011;5655;48.744;9.162;2023-07-24T01:19:37;9.20;;;6.63;;
11197;SDS011;5655;48.744;9.162;2023-07-24T01:27:34;10.63;;;6.75;;
11197;SDS011;5655;48.744;9.162;2023-07-24T01:29:59;8.40;;;6.07;;
11197;SDS011;5655;48.744;9.162;2023-07-24T01:32:25;9.63;;;5.78;;
11197;SDS011;5655;48.744;9.162;2023-07-24T01:34:50;9.25;;;6.70;;
11197;SDS011;5655;48.744;9.162;2023-07-24T01:37:17;12.07;;;6.05;;
11197;SDS011;5655;48.744;9.162;2023-07-24T01:39:45;11.50;;;7.15;;
11197;SDS011;5655;48.744;9.162;2023-07-24T01:42:11;11.95;;;6.63;;
11197;SDS011;5655;48.744;9.162;2023-07-24T01:44:38;10.52;;;6.63;;
11197;SDS011;5655;48.744;9.162;2023-07-24T01:47:03;10.70;;;6.75;;
11197;SDS011;5655;48.744;9.162;2023-07-24T01:49:29;9.85;;;6.30;;
11197;SDS011;5655;48.744;9.162;2023-07-24T01:51:54;11.48;;;7.45;;
11197;SDS011;5655;48.744;9.162;2023-07-24T01:54:19;11.05;;;6.45;;
11197;SDS011;5655;48.744;9.162;2023-07-24T01:56:45;10.60;;;6.90;;
11197;SDS011;5655;48.744;9.162;2023-07-24T01:59:10;10.57;;;6.30;;
11197;SDS011;5655;48.744;9.162;2023-07-24T02:01:35;12.48;;;7.00;;
11197;SDS011;5655;48.744;9.162;2023-07-24T02:04:01;11.75;;;7.38;;
11197;SDS011;5655;48.744;9.162;2023-07-24T02:06:27;10.85;;;6.93;;
11197;SDS011;5655;48.744;9.162;2023-07-24T02:08:52;9.98;;;6.25;;
11197;SDS011;5655;48.744;9.162;2023-07-24T02:11:18;9.18;;;6.40;;
11197;SDS011;5655;48.744;9.162;2023-07-24T02:13:44;11.02;;;6.25;;
11197;SDS011;5655;48.744;9.162;2023-07-24T02:16:10;10.38;;;7.20;;
11197;SDS011;5655;48.744;9.162;2023-07-24T02:18:36;10.30;;;7.20;;
11197;SDS011;5655;48.744;9.162;2023-07-24T02:21:03;11.52;;;6.93;;
11197;SDS011;5655;48.744;9.162;2023-07-24T02:23:28;10.73;;;6.70;;
11197;SDS011;5655;48.744;9.162;2023-07-24T02:25:53;9.98;;;6.95;;
11197;SDS011;5655;48.744;9.162;2023-07-24T02:28:19;10.45;;;6.75;;
11197;SDS011;5655;48.744;9.162;2023-07-24T02:30:46;13.65;;;7.35;;
11197;SDS011;5655;48.744;9.162;2023-07-24T02:33:11;10.20;;;6.28;;
11197;SDS011;5655;48.744;9.162;2023-07-24T02:35:40;9.88;;;6.72;;
11197;SDS011;5655;48.744;9.162;2023-07-24T02:38:06;10.10;;;6.68;;
11197;SDS011;5655;48.744;9.162;2023-07-24T02:40:31;11.20;;;6.93;;
11197;SDS011;5655;48.744;9.162;2023-07-24T02:42:56;11.25;;;7.15;;
11197;SDS011;5655;48.744;9.162;2023-07-24T02:45:22;9.40;;;6.50;;
11197;SDS011;5655;48.744;9.162;2023-07-24T02:47:47;15.60;;;7.35;;
11197;SDS011;5655;48.744;9.162;2023-07-24T02:50:13;10.57;;;6.72;;
11197;SDS011;5655;48.744;9.162;2023-07-24T02:52:38;13.25;;;6.80;;
11197;SDS011;5655;48.744;9.162;2023-07-24T02:55:03;11.25;;;7.22;;
11197;SDS011;5655;48.744;9.162;2023-07-24T02:57:29;10.80;;;6.40;;
11197;SDS011;5655;48.744;9.162;2023-07-24T02:59:54;13.30;;;7.13;;
11197;SDS011;5655;48.744;9.162;2023-07-24T03:02:19;10.50;;;6.88;;
11197;SDS011;5655;48.744;9.162;2023-07-24T03:04:45;10.48;;;6.97;;
11197;SDS011;5655;48.744;9.162;2023-07-24T03:07:10;11.05;;;6.75;;
11197;SDS011;5655;48.744;9.162;2023-07-24T03:09:35;9.88;;;6.60;;
11197;SDS011;5655;48.744;9.162;2023-07-24T03:12:01;9.68;;;6.82;;
11197;SDS011;5655;48.744;9.162;2023-07-24T03:14:26;10.23;;;6.70;;
11197;SDS011;5655;48.744;9.162;2023-07-24T03:16:51;9.20;;;6.47;;
11197;SDS011;5655;48.744;9.162;2023-07-24T03:19:16;9.85;;;6.93;;
11197;SDS011;5655;48.744;9.162;2023-07-24T03:21:42;21.67;;;8.43;;
11197;SDS011;5655;48.744;9.162;2023-07-24T03:24:08;11.75;;;6.75;;
11197;SDS011;5655;48.744;9.162;2023-07-24T03:26:33;10.70;;;6.55;;
11197;SDS011;5655;48.744;9.162;2023-07-24T03:28:59;9.82;;;6.68;;
11197;SDS011;5655;48.744;9.162;2023-07-24T03:31:25;9.32;;;6.32;;
11197;SDS011;5655;48.744;9.162;2023-07-24T03:33:50;9.75;;;6.55;;
11197;SDS011;5655;48.744;9.162;2023-07-24T03:36:16;11.32;;;7.07;;
11197;SDS011;5655;48.744;9.162;2023-07-24T03:38:41;11.95;;;6.55;;
11197;SDS011;5655;48.744;9.162;2023-07-24T03:41:06;9.45;;;6.80;;
11197;SDS011;5655;48.744;9.162;2023-07-24T03:43:31;11.70;;;7.32;;
11197;SDS011;5655;48.744;9.162;2023-07-24T03:45:57;8.65;;;5.85;;
11197;SDS011;5655;48.744;9.162;2023-07-24T03:48:22;10.32;;;6.35;;
11197;SDS011;5655;48.744;9.162;2023-07-24T03:50:49;10.82;;;6.22;;
11197;SDS011;5655;48.744;9.162;2023-07-24T03:53:14;10.30;;;6.70;;
11197;SDS011;5655;48.744;9.162;2023-07-24T03:55:40;11.95;;;6.88;;
11197;SDS011;5655;48.744;9.162;2023-07-24T03:58:05;14.65;;;6.70;;
11197;SDS011;5655;48.744;9.162;2023-07-24T04:00:30;8.73;;;6.88;;
11197;SDS011;5655;48.744;9.162;2023-07-24T04:02:56;9.65;;;6.43;;
11197;SDS011;5655;48.744;9.162;2023-07-24T04:05:21;9.30;;;6.85;;
11197;SDS011;5655;48.744;9.162;2023-07-24T04:07:46;10.07;;;6.78;;
11197;SDS011;5655;48.744;9.162;2023-07-24T04:10:12;10.15;;;6.38;;
11197;SDS011;5655;48.744;9.162;2023-07-24T04:12:37;10.70;;;6.60;;
11197;SDS011;5655;48.744;9.162;2023-07-24T04:15:02;11.25;;;6.57;;
11197;SDS011;5655;48.744;9.162;2023-07-24T04:17:28;9.88;;;6.68;;
11197;SDS011;5655;48.744;9.162;2023-07-24T04:19:53;13.57;;;7.00;;
11197;SDS011;5655;48.744;9.162;2023-07-24T04:22:19;9.45;;;6.40;;
11197;SDS011;5655;48.744;9.162;2023-07-24T04:24:44;9.50;;;6.50;;
11197;SDS011;5655;48.744;9.162;2023-07-24T04:27:09;11.23;;;6.95;;
11197;SDS011;5655;48.744;9.162;2023-07-24T04:29:34;9.20;;;6.28;;
11197;SDS011;5655;48.744;9.162;2023-07-24T04:32:00;9.98;;;6.55;;
11197;SDS011;5655;48.744;9.162;2023-07-24T04:34:25;11.98;;;7.38;;
11197;SDS011;5655;48.744;9.162;2023-07-24T04:36:50;10.05;;;6.47;;
11197;SDS011;5655;48.744;9.162;2023-07-24T04:39:16;9.57;;;6.55;;
11197;SDS011;5655;48.744;9.162;2023-07-24T04:41:41;14.50;;;7.60;;
11197;SDS011;5655;48.744;9.162;2023-07-24T04:44:06;13.32;;;7.15;;
11197;SDS011;5655;48.744;9.162;2023-07-24T04:46:31;11.02;;;6.75;;
11197;SDS011;5655;48.744;9.162;2023-07-24T04:48:57;10.70;;;7.45;;
11197;SDS011;5655;48.744;9.162;2023-07-24T04:51:22;11.85;;;7.10;;
11197;SDS011;5655;48.744;9.162;2023-07-24T04:53:47;12.68;;;6.68;;
11197;SDS011;5655;48.744;9.162;2023-07-24T04:56:13;17.20;;;7.07;;
11197;SDS011;5655;48.744;9.162;2023-07-24T04:58:38;14.13;;;7.45;;
11197;SDS011;5655;48.744;9.162;2023-07-24T05:01:03;11.80;;;7.30;;
11197;SDS011;5655;48.744;9.162;2023-07-24T05:03:29;12.23;;;6.40;;
11197;SDS011;5655;48.744;9.162;2023-07-24T05:05:55;12.02;;;6.95;;
11197;SDS011;5655;48.744;9.162;2023-07-24T05:08:21;13.02;;;7.22;;
11197;SDS011;5655;48.744;9.162;2023-07-24T05:10:46;11.73;;;7.05;;
11197;SDS011;5655;48.744;9.162;2023-07-24T05:13:11;11.77;;;6.45;;
11197;SDS011;5655;48.744;9.162;2023-07-24T05:15:37;10.70;;;6.85;;
11197;SDS011;5655;48.744;9.162;2023-07-24T05:18:02;10.18;;;6.95;;
11197;SDS011;5655;48.744;9.162;2023-07-24T05:20:27;10.27;;;6.97;;
11197;SDS011;5655;48.744;9.162;2023-07-24T05:22:53;11.18;;;7.15;;
11197;SDS011;5655;48.744;9.162;2023-07-24T05:25:18;9.73;;;6.95;;
11197;SDS011;5655;48.744;9.162;2023-07-24T05:27:43;9.70;;;6.20;;
11197;SDS011;5655;48.744;9.162;2023-07-24T05:30:09;13.88;;;6.72;;
11197;SDS011;5655;48.744;9.162;2023-07-24T05:32:34;11.60;;;6.38;;
11197;SDS011;5655;48.744;9.162;2023-07-24T05:34:59;14.13;;;7.72;;
11197;SDS011;5655;48.744;9.162;2023-07-24T05:37:25;11.57;;;7.05;;
11197;SDS011;5655;48.744;9.162;2023-07-24T05:39:50;13.90;;;7.00;;
11197;SDS011;5655;48.744;9.162;2023-07-24T05:42:16;13.02;;;7.32;;
11197;SDS011;5655;48.744;9.162;2023-07-24T05:44:41;10.57;;;6.53;;
11197;SDS011;5655;48.744;9.162;2023-07-24T05:47:06;10.07;;;7.07;;
11197;SDS011;5655;48.744;9.162;2023-07-24T05:49:32;15.30;;;7.45;;
11197;SDS011;5655;48.744;9.162;2023-07-24T05:51:57;9.43;;;6.65;;
11197;SDS011;5655;48.744;9.162;2023-07-24T05:54:22;11.15;;;7.70;;
11197;SDS011;5655;48.744;9.162;2023-07-24T05:56:48;10.07;;;7.20;;
11197;SDS011;5655;48.744;9.162;2023-07-24T05:59:13;11.60;;;7.60;;
11197;SDS011;5655;48.744;9.162;2023-07-24T06:01:39;11.43;;;7.03;;
11197;SDS011;5655;48.744;9.162;2023-07-24T06:04:04;12.13;;;6.85;;
11197;SDS011;5655;48.744;9.162;2023-07-24T06:06:30;10.43;;;7.22;;
11197;SDS011;5655;48.744;9.162;2023-07-24T06:08:56;9.40;;;6.60;;
11197;SDS011;5655;48.744;9.162;2023-07-24T06:11:21;9.85;;;7.30;;
11197;SDS011;5655;48.744;9.162;2023-07-24T06:13:47;9.63;;;7.22;;
11197;SDS011;5655;48.744;9.162;2023-07-24T06:16:13;15.35;;;7.53;;
11197;SDS011;5655;48.744;9.162;2023-07-24T06:18:39;11.13;;;7.47;;
11197;SDS011;5655;48.744;9.162;2023-07-24T06:21:04;15.27;;;8.02;;
11197;SDS011;5655;48.744;9.162;2023-07-24T06:23:29;12.93;;;7.32;;
11197;SDS011;5655;48.744;9.162;2023-07-24T06:25:55;11.27;;;7.32;;
11197;SDS011;5655;48.744;9.162;2023-07-24T06:28:21;9.95;;;6.70;;
11197;SDS011;5655;48.744;9.162;2023-07-24T06:30:46;13.10;;;7.63;;
11197;SDS011;5655;48.744;9.162;2023-07-24T06:33:12;13.68;;;7.00;;
11197;SDS011;5655;48.744;9.162;2023-07-24T06:35:37;12.25;;;7.40;;
11197;SDS011;5655;48.744;9.162;2023-07-24T06:38:02;11.70;;;7.45;;
11197;SDS011;5655;48.744;9.162;2023-07-24T06:40:28;12.52;;;7.63;;
11197;SDS011;5655;48.744;9.162;2023-07-24T06:42:53;10.05;;;6.68;;
11197;SDS011;5655;48.744;9.162;2023-07-24T06:45:19;13.80;;;7.28;;
11197;SDS011;5655;48.744;9.162;2023-07-24T06:47:44;16.27;;;7.53;;
11197;SDS011;5655;48.744;9.162;2023-07-24T06:50:09;12.30;;;7.13;;
11197;SDS011;5655;48.744;9.162;2023-07-24T06:52:35;10.70;;;6.88;;
11197;SDS011;5655;48.744;9.162;2023-07-24T06:55:00;10.23;;;7.35;;
11197;SDS011;5655;48.744;9.162;2023-07-24T06:57:25;10.88;;;6.53;;
11197;SDS011;5655;48.744;9.162;2023-07-24T06:59:51;11.43;;;7.93;;
11197;SDS011;5655;48.744;9.162;2023-07-24T07:02:16;12.07;;;7.45;;
11197;SDS011;5655;48.744;9.162;2023-07-24T07:04:41;13.95;;;7.75;;
11197;SDS011;5655;48.744;9.162;2023-07-24T07:07:07;15.73;;;7.20;;
11197;SDS011;5655;48.744;9.162;2023-07-24T07:09:32;13.60;;;7.25;;
11197;SDS011;5655;48.744;9.162;2023-07-24T07:11:58;12.82;;;7.55;;
11197;SDS011;5655;48.744;9.162;2023-07-24T07:14:24;10.65;;;7.18;;
11197;SDS011;5655;48.744;9.162;2023-07-24T07:16:49;17.02;;;7.95;;
11197;SDS011;5655;48.744;9.162;2023-07-24T07:19:14;12.40;;;7.72;;
11197;SDS011;5655;48.744;9.162;2023-07-24T07:21:40;15.50;;;8.32;;
11197;SDS011;5655;48.744;9.162;2023-07-24T07:24:05;13.02;;;7.65;;
11197;SDS011;5655;48.744;9.162;2023-07-24T07:26:30;15.48;;;7.05;;
11197;SDS011;5655;48.744;9.162;2023-07-24T07:28:56;12.32;;;7.45;;
11197;SDS011;5655;48.744;9.162;2023-07-24T07:31:21;13.63;;;7.60;;
11197;SDS011;5655;48.744;9.162;2023-07-24T07:33:46;11.88;;;8.02;;
11197;SDS011;5655;48.744;9.162;2023-07-24T07:36:13;13.95;;;7.63;;
11197;SDS011;5655;48.744;9.162;2023-07-24T07:38:38;11.63;;;7.65;;
11197;SDS011;5655;48.744;9.162;2023-07-24T07:41:04;13.95;;;8.45;;
11197;SDS011;5655;48.744;9.162;2023-07-24T07:43:31;13.55;;;7.72;;
11197;SDS011;5655;48.744;9.162;2023-07-24T07:45:56;11.27;;;7.53;;
11197;SDS011;5655;48.744;9.162;2023-07-24T07:48:23;11.07;;;7.35;;
11197;SDS011;5655;48.744;9.162;2023-07-24T07:50:51;12.68;;;8.02;;
11197;SDS011;5655;48.744;9.162;2023-07-24T07:53:17;13.00;;;7.90;;
11197;SDS011;5655;48.744;9.162;2023-07-24T07:55:42;15.23;;;7.80;;
11197;SDS011;5655;48.744;9.162;2023-07-24T07:58:07;11.68;;;7.30;;
11197;SDS011;5655;48.744;9.162;2023-07-24T08:00:34;11.85;;;8.68;;
11197;SDS011;5655;48.744;9.162;2023-07-24T08:02:59;11.68;;;7.80;;
11197;SDS011;5655;48.744;9.162;2023-07-24T08:05:24;11.98;;;7.68;;
11197;SDS011;5655;48.744;9.162;2023-07-24T08:07:50;12.30;;;8.15;;
11197;SDS011;5655;48.744;9.162;2023-07-24T08:10:15;12.23;;;8.50;;
11197;SDS011;5655;48.744;9.162;2023-07-24T08:12:41;11.63;;;7.80;;
11197;SDS011;5655;48.744;9.162;2023-07-24T08:15:07;10.85;;;7.43;;
11197;SDS011;5655;48.744;9.162;2023-07-24T08:17:33;11.50;;;7.18;;
11197;SDS011;5655;48.744;9.162;2023-07-24T08:19:58;12.18;;;7.47;;
11197;SDS011;5655;48.744;9.162;2023-07-24T08:22:24;13.75;;;8.00;;
11197;SDS011;5655;48.744;9.162;2023-07-24T08:24:49;11.40;;;7.40;;
11197;SDS011;5655;48.744;9.162;2023-07-24T08:27:16;13.60;;;7.93;;
11197;SDS011;5655;48.744;9.162;2023-07-24T08:29:41;10.95;;;7.47;;
11197;SDS011;5655;48.744;9.162;2023-07-24T08:32:07;13.70;;;7.53;;
11197;SDS011;5655;48.744;9.162;2023-07-24T08:34:32;13.07;;;7.68;;
11197;SDS011;5655;48.744;9.162;2023-07-24T08:36:58;10.25;;;7.18;;
11197;SDS011;5655;48.744;9.162;2023-07-24T08:39:23;10.77;;;7.13;;
11197;SDS011;5655;48.744;9.162;2023-07-24T08:41:48;10.52;;;7.63;;
11197;SDS011;5655;48.744;9.162;2023-07-24T08:44:14;14.45;;;8.13;;
11197;SDS011;5655;48.744;9.162;2023-07-24T08:46:40;9.88;;;6.75;;
11197;SDS011;5655;48.744;9.162;2023-07-24T08:49:13;11.60;;;7.55;;
11197;SDS011;5655;48.744;9.162;2023-07-24T08:51:40;10.02;;;6.80;;
11197;SDS011;5655;48.744;9.162;2023-07-24T08:54:06;9.68;;;6.80;;
11197;SDS011;5655;48.744;9.162;2023-07-24T08:56:32;8.82;;;6.30;;
11197;SDS011;5655;48.744;9.162;2023-07-24T08:58:58;10.68;;;7.15;;
11197;SDS011;5655;48.744;9.162;2023-07-24T09:01:24;12.35;;;7.10;;
11197;SDS011;5655;48.744;9.162;2023-07-24T09:03:49;9.90;;;6.65;;
11197;SDS011;5655;48.744;9.162;2023-07-24T09:06:15;9.87;;;7.40;;
11197;SDS011;5655;48.744;9.162;2023-07-24T09:08:42;11.35;;;7.85;;
11197;SDS011;5655;48.744;9.162;2023-07-24T09:11:09;12.98;;;7.68;;
11197;SDS011;5655;48.744;9.162;2023-07-24T09:13:35;12.38;;;7.57;;
11197;SDS011;5655;48.744;9.162;2023-07-24T09:16:01;12.65;;;7.03;;
11197;SDS011;5655;48.744;9.162;2023-07-24T09:18:37;11.88;;;6.65;;
11197;SDS011;5655;48.744;9.162;2023-07-24T09:21:04;9.77;;;6.38;;
11197;SDS011;5655;48.744;9.162;2023-07-24T09:23:29;11.85;;;6.75;;
11197;SDS011;5655;48.744;9.162;2023-07-24T09:25:55;7.78;;;5.63;;
11197;SDS011;5655;48.744;9.162;2023-07-24T09:28:20;8.95;;;6.15;;
11197;SDS011;5655;48.744;9.162;2023-07-24T09:30:56;8.98;;;5.60;;
11197;SDS011;5655;48.744;9.162;2023-07-24T09:33:22;9.65;;;5.53;;
11197;SDS011;5655;48.744;9.162;2023-07-24T09:36:01;8.45;;;5.30;;
11197;SDS011;5655;48.744;9.162;2023-07-24T09:38:28;7.82;;;5.40;;
11197;SDS011;5655;48.744;9.162;2023-07-24T09:40:53;7.95;;;4.85;;
11197;SDS011;5655;48.744;9.162;2023-07-24T09:45:50;7.43;;;5.03;;
11197;SDS011;5655;48.744;9.162;2023-07-24T09:48:17;7.28;;;5.10;;
11197;SDS011;5655;48.744;9.162;2023-07-24T09:50:44;10.18;;;5.35;;
11197;SDS011;5655;48.744;9.162;2023-07-24T09:53:17;8.20;;;5.63;;
11197;SDS011;5655;48.744;9.162;2023-07-24T09:55:56;8.32;;;5.28;;
11197;SDS011;5655;48.744;9.162;2023-07-24T09:58:23;8.45;;;5.10;;
11197;SDS011;5655;48.744;9.162;2023-07-24T10:00:51;8.95;;;5.28;;
11197;SDS011;5655;48.744;9.162;2023-07-24T10:03:17;7.82;;;5.75;;
11197;SDS011;5655;48.744;9.162;2023-07-24T10:05:45;9.07;;;5.20;;
11197;SDS011;5655;48.744;9.162;2023-07-24T10:08:11;7.18;;;5.13;;
11197;SDS011;5655;48.744;9.162;2023-07-24T10:10:38;8.27;;;5.82;;
11197;SDS011;5655;48.744;9.162;2023-07-24T10:13:04;9.55;;;6.22;;
11197;SDS011;5655;48.744;9.162;2023-07-24T10:15:31;10.93;;;6.47;;
11197;SDS011;5655;48.744;9.162;2023-07-24T10:18:03;9.60;;;5.93;;
11197;SDS011;5655;48.744;9.162;2023-07-24T10:20:39;8.48;;;5.72;;
11197;SDS011;5655;48.744;9.162;2023-07-24T10:23:06;8.20;;;6.00;;
11197;SDS011;5655;48.744;9.162;2023-07-24T10:25:33;9.32;;;5.80;;
11197;SDS011;5655;48.744;9.162;2023-07-24T10:28:04;9.35;;;6.03;;
11197;SDS011;5655;48.744;9.162;2023-07-24T10:30:33;9.65;;;6.40;;
11197;SDS011;5655;48.744;9.162;2023-07-24T10:33:10;12.27;;;6.40;;
11197;SDS011;5655;48.744;9.162;2023-07-24T10:35:44;10.05;;;6.43;;
11197;SDS011;5655;48.744;9.162;2023-07-24T10:38:12;8.82;;;6.22;;
11197;SDS011;5655;48.744;9.162;2023-07-24T10:40:40;8.80;;;6.72;;
11197;SDS011;5655;48.744;9.162;2023-07-24T10:43:10;9.45;;;6.72;;
11197;SDS011;5655;48.744;9.162;2023-07-24T10:45:58;13.07;;;7.32;;
11197;SDS011;5655;48.744;9.162;2023-07-24T10:48:24;11.93;;;7.53;;
11197;SDS011;5655;48.744;9.162;2023-07-24T10:50:51;15.18;;;7.93;;
11197;SDS011;5655;48.744;9.162;2023-07-24T10:53:18;12.07;;;8.40;;
11197;SDS011;5655;48.744;9.162;2023-07-24T10:55:45;12.65;;;7.30;;
11197;SDS011;5655;48.744;9.162;2023-07-24T10:58:16;20.73;;;8.10;;
11197;SDS011;5655;48.744;9.162;2023-07-24T11:00:44;12.43;;;8.20;;
11197;SDS011;5655;48.744;9.162;2023-07-24T11:03:12;15.93;;;7.68;;
11197;SDS011;5655;48.744;9.162;2023-07-24T11:05:42;12.40;;;8.23;;
11197;SDS011;5655;48.744;9.162;2023-07-24T11:08:18;18.15;;;9.27;;
11197;SDS011;5655;48.744;9.162;2023-07-24T11:10:47;15.63;;;8.48;;
11197;SDS011;5655;48.744;9.162;2023-07-24T11:13:18;12.95;;;8.02;;
11197;SDS011;5655;48.744;9.162;2023-07-24T11:15:44;12.93;;;8.43;;
11197;SDS011;5655;48.744;9.162;2023-07-24T11:18:10;14.60;;;8.77;;
11197;SDS011;5655;48.744;9.162;2023-07-24T11:20:43;13.15;;;8.32;;
11197;SDS011;5655;48.744;9.162;2023-07-24T11:23:10;13.48;;;9.35;;
11197;SDS011;5655;48.744;9.162;2023-07-24T11:25:36;12.25;;;8.88;;
11197;SDS011;5655;48.744;9.162;2023-07-24T11:28:02;13.68;;;9.77;;
11197;SDS011;5655;48.744;9.162;2023-07-24T11:30:30;14.20;;;9.77;;
11197;SDS011;5655;48.744;9.162;2023-07-24T11:32:56;15.50;;;9.88;;
11197;SDS011;5655;48.744;9.162;2023-07-24T11:35:24;15.80;;;9.02;;
11197;SDS011;5655;48.744;9.162;2023-07-24T11:37:50;11.50;;;8.73;;
11197;SDS011;5655;48.744;9.162;2023-07-24T11:40:16;13.45;;;9.15;;
11197;SDS011;5655;48.744;9.162;2023-07-24T11:42:44;14.38;;;9.70;;
11197;SDS011;5655;48.744;9.162;2023-07-24T11:45:10;16.23;;;11.30;;
11197;SDS011;5655;48.744;9.162;2023-07-24T11:47:45;16.98;;;11.98;;
11197;SDS011;5655;48.744;9.162;2023-07-24T11:50:12;16.83;;;10.55;;
11197;SDS011;5655;48.744;9.162;2023-07-24T11:52:42;12.52;;;8.85;;
11197;SDS011;5655;48.744;9.162;2023-07-24T11:55:13;12.90;;;7.82;;
11197;SDS011;5655;48.744;9.162;2023-07-24T11:57:39;12.35;;;7.97;;
11197;SDS011;5655;48.744;9.162;2023-07-24T12:00:05;12.20;;;8.13;;
11197;SDS011;5655;48.744;9.162;2023-07-24T12:02:43;13.32;;;8.00;;
11197;SDS011;5655;48.744;9.162;2023-07-24T12:05:09;13.65;;;8.27;;
11197;SDS011;5655;48.744;9.162;2023-07-24T12:07:35;10.90;;;7.88;;
11197;SDS011;5655;48.744;9.162;2023-07-24T12:10:02;12.80;;;8.38;;
11197;SDS011;5655;48.744;9.162;2023-07-24T12:12:36;12.68;;;8.75;;
11197;SDS011;5655;48.744;9.162;2023-07-24T12:15:08;15.23;;;10.13;;
11197;SDS011;5655;48.744;9.162;2023-07-24T12:17:35;16.45;;;10.20;;
11197;SDS011;5655;48.744;9.162;2023-07-24T12:20:00;14.40;;;9.40;;
11197;SDS011;5655;48.744;9.162;2023-07-24T12:22:26;14.85;;;10.07;;
11197;SDS011;5655;48.744;9.162;2023-07-24T12:24:51;17.10;;;11.50;;
11197;SDS011;5655;48.744;9.162;2023-07-24T12:27:16;14.07;;;10.57;;
11197;SDS011;5655;48.744;9.162;2023-07-24T12:29:42;11.45;;;7.97;;
11197;SDS011;5655;48.744;9.162;2023-07-24T12:32:07;14.15;;;8.20;;
11197;SDS011;5655;48.744;9.162;2023-07-24T12:34:32;11.25;;;7.63;;
11197;SDS011;5655;48.744;9.162;2023-07-24T12:36:58;9.65;;;6.78;;
11197;SDS011;5655;48.744;9.162;2023-07-24T12:39:23;10.10;;;6.85;;
11197;SDS011;5655;48.744;9.162;2023-07-24T12:41:48;9.40;;;6.22;;
11197;SDS011;5655;48.744;9.162;2023-07-24T12:44:14;12.20;;;7.00;;
11197;SDS011;5655;48.744;9.162;2023-07-24T12:46:39;8.25;;;6.43;;
11197;SDS011;5655;48.744;9.162;2023-07-24T12:49:04;10.63;;;7.03;;
11197;SDS011;5655;48.744;9.162;2023-07-24T12:51:30;8.85;;;6.30;;
11197;SDS011;5655;48.744;9.162;2023-07-24T12:53:55;10.63;;;6.30;;
11197;SDS011;5655;48.744;9.162;2023-07-24T12:56:21;8.55;;;6.05;;
11197;SDS011;5655;48.744;9.162;2023-07-24T12:58:46;9.82;;;6.68;;
11197;SDS011;5655;48.744;9.162;2023-07-24T13:01:11;8.57;;;6.30;;
11197;SDS011;5655;48.744;9.162;2023-07-24T13:03:36;8.70;;;5.82;;
11197;SDS011;5655;48.744;9.162;2023-07-24T13:06:02;6.95;;;5.82;;
11197;SDS011;5655;48.744;9.162;2023-07-24T13:08:27;7.15;;;5.05;;
11197;SDS011;5655;48.744;9.162;2023-07-24T13:10:52;7.28;;;5.43;;
11197;SDS011;5655;48.744;9.162;2023-07-24T13:13:18;7.90;;;5.07;;
11197;SDS011;5655;48.744;9.162;2023-07-24T13:15:43;7.88;;;5.38;;
11197;SDS011;5655;48.744;9.162;2023-07-24T13:18:08;8.18;;;5.25;;
11197;SDS011;5655;48.744;9.162;2023-07-24T13:20:34;6.28;;;4.88;;
11197;SDS011;5655;48.744;9.162;2023-07-24T13:22:59;6.90;;;5.38;;
11197;SDS011;5655;48.744;9.162;2023-07-24T13:25:24;8.07;;;5.38;;
11197;SDS011;5655;48.744;9.162;2023-07-24T13:27:50;6.03;;;5.07;;
11197;SDS011;5655;48.744;9.162;2023-07-24T13:30:15;6.70;;;4.78;;
11197;SDS011;5655;48.744;9.162;2023-07-24T13:32:41;7.43;;;4.97;;
11197;SDS011;5655;48.744;9.162;2023-07-24T13:35:06;7.72;;;5.22;;
11197;SDS011;5655;48.744;9.162;2023-07-24T13:37:32;7.40;;;5.63;;
11197;SDS011;5655;48.744;9.162;2023-07-24T13:39:57;6.38;;;4.65;;
11197;SDS011;5655;48.744;9.162;2023-07-24T13:42:22;6.28;;;4.75;;
11197;SDS011;5655;48.744;9.162;2023-07-24T13:44:48;6.03;;;4.57;;
11197;SDS011;5655;48.744;9.162;2023-07-24T13:47:13;5.60;;;4.15;;
11197;SDS011;5655;48.744;9.162;2023-07-24T13:49:38;6.43;;;4.30;;
11197;SDS011;5655;48.744;9.162;2023-07-24T13:52:04;5.97;;;4.40;;
11197;SDS011;5655;48.744;9.162;2023-07-24T13:54:29;6.57;;;4.55;;
11197;SDS011;5655;48.744;9.162;2023-07-24T13:56:55;8.65;;;5.40;;
11197;SDS011;5655;48.744;9.162;2023-07-24T13:59:20;5.88;;;4.70;;
11197;SDS011;5655;48.744;9.162;2023-07-24T14:01:45;6.18;;;4.55;;
11197;SDS011;5655;48.744;9.162;2023-07-24T14:04:10;5.90;;;4.43;;
11197;SDS011;5655;48.744;9.162;2023-07-24T14:06:37;5.30;;;4.00;;
11197;SDS011;5655;48.744;9.162;2023-07-24T14:09:02;5.88;;;4.38;;
11197;SDS011;5655;48.744;9.162;2023-07-24T14:11:28;6.45;;;4.80;;
11197;SDS011;5655;48.744;9.162;2023-07-24T14:13:54;6.35;;;4.88;;
11197;SDS011;5655;48.744;9.162;2023-07-24T14:16:19;6.10;;;4.20;;
11197;SDS011;5655;48.744;9.162;2023-07-24T14:18:44;6.25;;;4.07;;
11197;SDS011;5655;48.744;9.162;2023-07-24T14:21:10;6.13;;;4.50;;
11197;SDS011;5655;48.744;9.162;2023-07-24T14:23:35;6.45;;;4.32;;
11197;SDS011;5655;48.744;9.162;2023-07-24T14:26:00;5.57;;;4.20;;
11197;SDS011;5655;48.744;9.162;2023-07-24T14:28:26;5.20;;;4.07;;
11197;SDS011;5655;48.744;9.162;2023-07-24T14:30:51;5.38;;;3.85;;
11197;SDS011;5655;48.744;9.162;2023-07-24T14:33:16;5.75;;;4.15;;
11197;SDS011;5655;48.744;9.162;2023-07-24T14:35:42;5.25;;;3.65;;
11197;SDS011;5655;48.744;9.162;2023-07-24T14:38:07;5.70;;;4.20;;
11197;SDS011;5655;48.744;9.162;2023-07-24T14:40:32;6.32;;;4.03;;
11197;SDS011;5655;48.744;9.162;2023-07-24T14:42:58;5.60;;;4.13;;
11197;SDS011;5655;48.744;9.162;2023-07-24T14:45:23;5.93;;;3.78;;
11197;SDS011;5655;48.744;9.162;2023-07-24T14:47:49;7.40;;;4.32;;
11197;SDS011;5655;48.744;9.162;2023-07-24T14:50:15;5.30;;;4.10;;
11197;SDS011;5655;48.744;9.162;2023-07-24T14:52:40;5.60;;;3.97;;
11197;SDS011;5655;48.744;9.162;2023-07-24T14:55:06;5.88;;;4.32;;